Time;durP1;ratioP1;P1;durP2;ratioP2;P2;SDS_P1;SDS_P2;PMS_P1;PMS_P2;Temp;Humidity;BMP_temperature;BMP_pressure;BME280_temperature;BME280_humidity;BME280_pressure;Samples;Min_cycle;Max_cycle;Signal;HPM_P1;HPM_P2
2023/03/12 00:02:21;;;;;;;6.97;3.90;;;5.00;99.90;;;;;;5075631;28;20212;-67
2023/03/12 00:04:48;;;;;;;6.10;4.03;;;5.00;99.90;;;;;;5092132;28;20219;-61
2023/03/12 00:07:15;;;;;;;4.73;4.07;;;5.00;99.90;;;;;;5091921;28;20629;-60
2023/03/12 00:09:42;;;;;;;8.27;3.90;;;4.80;99.90;;;;;;5092108;28;20792;-60
2023/03/12 00:12:09;;;;;;;7.27;4.27;;;4.60;99.90;;;;;;5090445;28;20540;-60
2023/03/12 00:14:36;;;;;;;4.73;3.50;;;4.70;99.90;;;;;;5093823;28;20282;-60
2023/03/12 00:17:03;;;;;;;13.13;3.80;;;4.80;99.90;;;;;;5092802;28;20299;-61
2023/03/12 00:19:29;;;;;;;3.87;3.30;;;4.80;99.90;;;;;;5092639;28;20198;-60
2023/03/12 00:21:56;;;;;;;5.33;3.40;;;4.60;99.90;;;;;;5097567;28;20205;-61
2023/03/12 00:24:23;;;;;;;4.97;3.93;;;4.60;99.90;;;;;;5093587;28;20192;-61
2023/03/12 00:26:50;;;;;;;5.13;3.17;;;4.40;99.90;;;;;;5096523;28;20300;-61
2023/03/12 00:29:17;;;;;;;6.90;3.60;;;4.60;99.90;;;;;;5095714;28;20200;-60
2023/03/12 00:31:44;;;;;;;4.87;3.37;;;4.40;99.90;;;;;;5076342;28;20205;-61
2023/03/12 00:34:11;;;;;;;3.70;3.13;;;4.50;99.90;;;;;;5095734;28;20356;-60
2023/03/12 00:36:40;;;;;;;5.03;3.27;;;4.60;99.90;;;;;;5098578;28;20588;-60
2023/03/12 00:39:06;;;;;;;5.20;3.00;;;4.60;99.90;;;;;;5096323;28;20243;-61
2023/03/12 00:41:33;;;;;;;9.10;3.57;;;4.70;99.90;;;;;;5096584;28;20200;-61
2023/03/12 00:44:00;;;;;;;5.13;2.87;;;4.70;99.90;;;;;;5075309;28;20208;-61
2023/03/12 00:46:27;;;;;;;3.83;2.73;;;4.50;99.90;;;;;;5095011;28;20264;-61
2023/03/12 00:48:54;;;;;;;4.07;3.37;;;4.60;99.90;;;;;;5098167;28;20290;-61
2023/03/12 00:51:21;;;;;;;8.60;3.10;;;4.70;99.90;;;;;;5104158;28;20193;-60
2023/03/12 00:53:48;;;;;;;5.33;3.17;;;4.50;99.90;;;;;;5096918;28;20297;-61
2023/03/12 00:56:15;;;;;;;4.03;2.90;;;4.60;99.90;;;;;;5092288;28;20709;-60
2023/03/12 00:58:42;;;;;;;4.43;2.90;;;4.70;99.90;;;;;;5095581;28;20235;-60
2023/03/12 01:01:10;;;;;;;3.60;2.80;;;4.60;99.90;;;;;;5095957;28;20195;-60
2023/03/12 01:03:37;;;;;;;6.60;3.50;;;4.70;99.90;;;;;;5078185;28;20199;-61
2023/03/12 01:06:04;;;;;;;7.57;3.00;;;4.80;99.90;;;;;;5096877;28;20211;-60
2023/03/12 01:08:32;;;;;;;5.53;3.60;;;4.80;99.90;;;;;;5094471;28;20218;-61
2023/03/12 01:10:59;;;;;;;4.87;3.07;;;4.80;99.90;;;;;;5096355;28;20204;-60
2023/03/12 01:13:26;;;;;;;4.63;2.97;;;4.70;99.90;;;;;;5093893;28;20216;-61
2023/03/12 01:15:53;;;;;;;7.13;3.90;;;4.70;99.90;;;;;;5097242;28;20314;-60
2023/03/12 01:18:20;;;;;;;7.20;3.70;;;4.70;99.90;;;;;;5097925;28;20229;-60
2023/03/12 01:20:46;;;;;;;5.53;3.80;;;4.60;99.90;;;;;;5098664;28;20198;-61
2023/03/12 01:23:14;;;;;;;5.77;3.17;;;4.70;99.90;;;;;;5097615;28;20200;-61
2023/03/12 01:25:41;;;;;;;6.63;3.07;;;4.80;99.90;;;;;;5095500;28;20199;-61
2023/03/12 01:28:08;;;;;;;4.77;3.40;;;4.80;99.90;;;;;;5097174;28;20226;-60
2023/03/12 01:30:35;;;;;;;5.53;3.53;;;4.50;99.90;;;;;;5093464;28;20243;-61
2023/03/12 01:33:02;;;;;;;10.87;3.83;;;4.60;99.90;;;;;;5094276;28;20249;-60
2023/03/12 01:35:29;;;;;;;4.57;3.03;;;4.80;99.90;;;;;;5094450;28;20262;-60
2023/03/12 01:37:56;;;;;;;6.30;3.63;;;4.90;99.90;;;;;;5093971;28;20210;-59
2023/03/12 01:40:27;;;;;;;7.47;3.23;;;4.90;99.90;;;;;;5095382;28;20688;-59
2023/03/12 01:42:56;;;;;;;4.20;3.63;;;4.90;99.90;;;;;;5099603;28;20206;-59
2023/03/12 01:46:00;;;;;;;8.10;3.70;;;4.90;99.90;;;;;;5095550;28;21028;-59
2023/03/12 01:48:32;;;;;;;5.97;3.47;;;4.80;99.90;;;;;;5101636;27;20211;-59
2023/03/12 01:51:00;;;;;;;8.27;3.90;;;4.90;99.90;;;;;;5098405;28;20737;-59
2023/03/12 01:53:28;;;;;;;9.50;3.70;;;4.90;99.90;;;;;;5098973;28;20213;-59
2023/03/12 01:55:58;;;;;;;8.47;3.50;;;4.80;99.90;;;;;;5096436;28;20218;-59
2023/03/12 01:58:28;;;;;;;4.60;3.10;;;4.80;99.90;;;;;;5099201;28;20703;-59
2023/03/12 02:00:55;;;;;;;5.37;3.07;;;4.90;99.90;;;;;;5098531;28;20192;-59
2023/03/12 02:03:22;;;;;;;6.07;3.50;;;4.90;99.90;;;;;;5101252;28;20202;-59
2023/03/12 02:06:05;;;;;;;3.83;2.97;;;4.80;99.90;;;;;;5098748;28;20597;-59
2023/03/12 02:08:38;;;;;;;7.67;3.33;;;4.80;99.90;;;;;;5099634;28;20690;-59
2023/03/12 02:11:05;;;;;;;6.03;3.27;;;4.90;99.90;;;;;;5097287;28;20754;-60
2023/03/12 02:13:33;;;;;;;6.17;3.63;;;4.80;99.90;;;;;;5098787;28;20267;-59
2023/03/12 02:16:00;;;;;;;6.67;3.23;;;4.80;99.90;;;;;;5078970;28;20221;-60
2023/03/12 02:18:27;;;;;;;7.60;3.30;;;4.80;99.90;;;;;;5101708;28;20247;-59
2023/03/12 02:21:09;;;;;;;6.37;3.80;;;4.80;99.90;;;;;;5101026;28;20227;-59
2023/03/12 02:23:53;;;;;;;4.53;3.20;;;4.90;99.90;;;;;;5099128;28;20203;-59
2023/03/12 02:26:21;;;;;;;5.43;2.97;;;4.80;99.90;;;;;;5098154;28;20211;-59
2023/03/12 02:28:49;;;;;;;4.67;3.40;;;4.70;99.90;;;;;;5100920;28;20251;-58
2023/03/12 02:31:22;;;;;;;4.90;3.10;;;4.70;99.90;;;;;;5099191;28;20208;-59
2023/03/12 02:33:49;;;;;;;6.70;3.57;;;4.70;99.90;;;;;;5100300;27;20228;-59
2023/03/12 02:36:15;;;;;;;3.80;3.03;;;4.70;99.90;;;;;;5080781;28;20410;-59
2023/03/12 02:38:47;;;;;;;5.07;3.37;;;4.70;99.90;;;;;;5099967;28;20254;-58
2023/03/12 02:41:28;;;;;;;4.20;3.37;;;4.60;99.90;;;;;;5100518;27;20232;-59
2023/03/12 02:44:03;;;;;;;3.13;2.83;;;4.60;99.90;;;;;;5082598;28;20200;-58
2023/03/12 02:46:34;;;;;;;4.33;2.73;;;4.60;99.90;;;;;;5079594;28;20255;-59
2023/03/12 02:49:01;;;;;;;6.20;3.00;;;4.70;99.90;;;;;;5100952;28;20186;-60
2023/03/12 02:51:28;;;;;;;5.27;3.50;;;4.60;99.90;;;;;;5098737;28;20938;-59
2023/03/12 02:53:56;;;;;;;7.00;3.60;;;4.50;99.90;;;;;;5099571;28;20655;-58
2023/03/12 02:56:24;;;;;;;7.50;3.27;;;4.40;99.90;;;;;;5097833;28;20212;-59
2023/03/12 02:58:52;;;;;;;5.47;3.20;;;4.60;99.90;;;;;;5100151;28;20571;-59
2023/03/12 03:01:20;;;;;;;5.47;3.20;;;4.50;99.90;;;;;;5097716;28;20673;-58
2023/03/12 03:03:47;;;;;;;10.13;3.60;;;4.30;99.90;;;;;;5099644;28;20201;-59
2023/03/12 03:06:15;;;;;;;4.60;2.87;;;4.50;99.90;;;;;;5097387;28;20343;-59
2023/03/12 03:08:41;;;;;;;8.43;3.30;;;4.40;99.90;;;;;;5099012;28;20232;-63
2023/03/12 03:11:09;;;;;;;7.07;3.20;;;4.40;99.90;;;;;;5099703;28;20284;-59
2023/03/12 03:13:36;;;;;;;4.27;3.20;;;4.50;99.90;;;;;;5080883;28;20204;-59
2023/03/12 03:16:04;;;;;;;7.67;3.13;;;4.50;99.90;;;;;;5099373;28;20207;-59
2023/03/12 03:18:31;;;;;;;8.47;3.40;;;4.40;99.90;;;;;;5098599;28;20216;-59
2023/03/12 03:21:03;;;;;;;5.47;3.10;;;4.40;99.90;;;;;;5100311;28;20724;-58
2023/03/12 03:23:30;;;;;;;6.33;3.13;;;4.40;99.90;;;;;;5080986;28;20232;-59
2023/03/12 03:25:58;;;;;;;4.73;3.23;;;4.40;99.90;;;;;;5097858;28;20204;-59
2023/03/12 03:28:28;;;;;;;4.43;3.20;;;4.40;99.90;;;;;;5097580;28;20277;-59
2023/03/12 03:30:59;;;;;;;4.43;3.30;;;4.50;99.90;;;;;;5099373;28;20232;-62
2023/03/12 03:33:28;;;;;;;5.10;3.43;;;4.40;99.90;;;;;;5099994;28;20724;-59
2023/03/12 03:35:56;;;;;;;6.53;3.77;;;4.30;99.90;;;;;;5098170;28;20345;-58
2023/03/12 03:38:23;;;;;;;5.57;3.23;;;4.30;99.90;;;;;;5098558;28;20200;-59
2023/03/12 03:40:50;;;;;;;5.77;3.30;;;4.30;99.90;;;;;;5080415;28;20205;-59
2023/03/12 03:43:17;;;;;;;5.43;3.00;;;4.20;99.90;;;;;;5097925;28;20190;-62
2023/03/12 03:45:44;;;;;;;4.57;2.83;;;4.10;99.90;;;;;;5098352;28;20289;-59
2023/03/12 03:48:12;;;;;;;2.93;2.60;;;4.30;99.90;;;;;;5097235;28;20235;-57
2023/03/12 03:50:39;;;;;;;6.97;3.13;;;4.40;99.90;;;;;;5099274;28;20254;-57
2023/03/12 03:53:08;;;;;;;3.80;2.90;;;4.30;99.90;;;;;;5076640;28;20201;-57
2023/03/12 03:55:36;;;;;;;3.97;2.87;;;4.20;99.90;;;;;;5085898;28;20632;-56
2023/03/12 03:58:03;;;;;;;5.07;3.10;;;4.30;99.90;;;;;;5096173;28;20604;-58
2023/03/12 04:00:31;;;;;;;4.17;2.40;;;4.30;99.90;;;;;;5096076;28;20268;-57
2023/03/12 04:02:58;;;;;;;3.80;2.80;;;4.40;99.90;;;;;;5097312;28;20203;-57
2023/03/12 04:05:25;;;;;;;6.53;3.00;;;4.40;99.90;;;;;;5095906;28;20193;-57
2023/03/12 04:07:53;;;;;;;3.60;2.17;;;4.50;99.90;;;;;;5096923;28;20303;-57
2023/03/12 04:10:21;;;;;;;3.00;2.50;;;4.30;99.90;;;;;;5095304;28;20304;-58
2023/03/12 04:12:49;;;;;;;4.47;2.93;;;4.20;99.90;;;;;;5096908;28;20215;-62
2023/03/12 04:15:16;;;;;;;5.63;2.80;;;4.30;99.90;;;;;;5092350;28;20209;-58
2023/03/12 04:17:43;;;;;;;4.87;2.57;;;4.40;99.90;;;;;;5098512;28;20240;-57
2023/03/12 04:20:11;;;;;;;5.33;2.57;;;4.30;99.90;;;;;;5095330;28;20200;-58
2023/03/12 04:22:37;;;;;;;3.57;2.20;;;4.40;99.90;;;;;;5097507;28;20295;-58
2023/03/12 04:25:06;;;;;;;11.53;5.23;;;4.30;99.90;;;;;;5095825;28;20207;-57
2023/03/12 04:27:33;;;;;;;4.03;2.63;;;4.20;99.90;;;;;;5097752;28;20210;-57
2023/03/12 04:30:00;;;;;;;5.33;2.93;;;4.20;99.90;;;;;;5093841;28;20208;-57
2023/03/12 04:32:27;;;;;;;6.03;2.57;;;4.20;99.90;;;;;;5094172;28;20199;-57
2023/03/12 04:34:54;;;;;;;5.80;2.20;;;4.30;99.90;;;;;;5096238;28;20239;-57
2023/03/12 04:37:21;;;;;;;4.77;2.93;;;4.30;99.90;;;;;;5097955;28;20203;-57
2023/03/12 04:39:48;;;;;;;8.03;3.43;;;4.20;99.90;;;;;;5095028;28;20200;-57
2023/03/12 04:42:15;;;;;;;4.60;2.40;;;4.30;99.90;;;;;;5095972;28;20268;-57
2023/03/12 04:44:41;;;;;;;5.20;3.00;;;4.20;99.90;;;;;;5095621;28;20199;-57
2023/03/12 04:47:08;;;;;;;6.63;2.90;;;4.20;99.90;;;;;;5097904;28;20707;-59
2023/03/12 04:49:38;;;;;;;5.50;2.70;;;4.20;99.90;;;;;;5096937;28;20290;-57
2023/03/12 04:52:05;;;;;;;3.67;2.43;;;4.20;99.90;;;;;;5096197;28;20604;-57
2023/03/12 04:54:33;;;;;;;7.73;2.87;;;4.20;99.90;;;;;;5093610;28;20292;-57
2023/03/12 04:57:00;;;;;;;4.60;2.90;;;4.20;99.90;;;;;;5097023;28;20754;-57
2023/03/12 04:59:26;;;;;;;7.03;2.83;;;4.10;99.90;;;;;;5095588;28;20715;-57
2023/03/12 05:01:53;;;;;;;5.00;2.80;;;4.20;99.90;;;;;;5096306;28;20199;-57
2023/03/12 05:04:20;;;;;;;4.50;2.67;;;4.20;99.90;;;;;;5095354;28;20308;-57
2023/03/12 05:06:47;;;;;;;4.87;3.07;;;4.20;99.90;;;;;;5096668;28;20196;-58
2023/03/12 05:09:14;;;;;;;6.17;2.70;;;4.10;99.90;;;;;;5094614;28;20202;-57
2023/03/12 05:11:41;;;;;;;4.47;2.70;;;4.10;99.90;;;;;;5096158;28;20195;-57
2023/03/12 05:14:10;;;;;;;4.60;3.20;;;4.20;99.90;;;;;;5095303;28;21090;-57
2023/03/12 05:16:37;;;;;;;6.60;3.30;;;4.30;99.90;;;;;;5100500;28;20217;-57
2023/03/12 05:19:04;;;;;;;5.30;2.80;;;4.10;99.90;;;;;;5100054;28;20314;-59
2023/03/12 05:21:32;;;;;;;5.13;3.13;;;4.20;99.90;;;;;;5102497;28;21813;-58
2023/03/12 05:23:59;;;;;;;6.30;3.17;;;4.30;99.90;;;;;;5100468;28;20199;-58
2023/03/12 05:26:30;;;;;;;6.73;3.63;;;4.20;99.90;;;;;;5098957;28;20212;-57
2023/03/12 05:28:58;;;;;;;5.57;3.60;;;4.10;99.90;;;;;;5101963;28;20557;-57
2023/03/12 05:31:26;;;;;;;7.77;2.97;;;4.10;99.90;;;;;;5083754;28;20210;-57
2023/03/12 05:33:53;;;;;;;4.00;2.50;;;4.20;99.90;;;;;;5082074;28;20250;-57
2023/03/12 05:36:20;;;;;;;8.60;3.13;;;4.20;99.90;;;;;;5099342;28;20266;-57
2023/03/12 05:38:47;;;;;;;5.60;3.33;;;3.90;99.90;;;;;;5098388;28;20196;-57
2023/03/12 05:41:18;;;;;;;5.27;3.10;;;3.90;99.90;;;;;;5099594;28;20219;-57
2023/03/12 05:43:45;;;;;;;5.40;3.00;;;3.90;99.90;;;;;;5080838;28;20194;-57
2023/03/12 05:46:13;;;;;;;8.50;3.37;;;4.00;99.90;;;;;;5098472;28;20207;-58
2023/03/12 05:48:40;;;;;;;3.80;2.93;;;3.80;99.90;;;;;;5101035;27;20700;-57
2023/03/12 05:51:07;;;;;;;4.10;2.87;;;3.80;99.90;;;;;;5100835;28;20195;-57
2023/03/12 05:53:34;;;;;;;8.17;2.87;;;3.90;99.90;;;;;;5100396;27;20285;-58
2023/03/12 05:56:05;;;;;;;7.53;3.30;;;3.90;99.90;;;;;;5098547;28;20200;-57
2023/03/12 05:58:34;;;;;;;6.50;3.30;;;3.90;99.90;;;;;;5099606;28;20193;-57
2023/03/12 06:01:01;;;;;;;4.80;2.80;;;3.90;99.90;;;;;;5082186;28;20200;-57
2023/03/12 06:03:28;;;;;;;3.63;3.00;;;4.00;99.90;;;;;;5082169;28;20191;-57
2023/03/12 06:05:56;;;;;;;7.00;3.47;;;3.90;99.90;;;;;;5100308;28;20564;-57
2023/03/12 06:08:23;;;;;;;7.07;2.83;;;3.80;99.90;;;;;;5101048;28;20286;-57
2023/03/12 06:10:53;;;;;;;4.73;3.17;;;3.80;99.90;;;;;;5101568;28;20230;-60
2023/03/12 06:13:21;;;;;;;6.03;3.47;;;3.70;99.90;;;;;;5099116;28;20256;-61
2023/03/12 06:15:48;;;;;;;6.37;3.97;;;3.80;99.90;;;;;;5081420;28;20212;-61
2023/03/12 06:18:15;;;;;;;7.33;3.67;;;3.90;99.90;;;;;;5099828;28;20230;-61
2023/03/12 06:20:42;;;;;;;5.97;3.13;;;4.00;99.90;;;;;;5100140;28;20266;-60
2023/03/12 06:23:09;;;;;;;4.90;3.10;;;4.00;99.90;;;;;;5101008;27;20201;-60
2023/03/12 06:25:36;;;;;;;5.60;3.17;;;3.90;99.90;;;;;;5097129;28;20220;-61
2023/03/12 06:28:03;;;;;;;6.67;3.87;;;3.80;99.90;;;;;;5099102;28;20239;-62
2023/03/12 06:30:30;;;;;;;8.70;3.50;;;3.80;99.90;;;;;;5099005;28;20284;-61
2023/03/12 06:32:57;;;;;;;7.00;3.60;;;3.90;99.90;;;;;;5101096;28;20234;-61
2023/03/12 06:35:24;;;;;;;7.10;3.57;;;4.00;99.90;;;;;;5097659;28;20606;-60
2023/03/12 06:37:51;;;;;;;6.57;3.77;;;3.90;99.90;;;;;;5097494;28;20291;-61
2023/03/12 06:40:18;;;;;;;5.93;3.60;;;4.00;99.90;;;;;;5093572;28;20195;-60
2023/03/12 06:42:46;;;;;;;7.53;3.80;;;3.90;99.90;;;;;;5100149;28;21100;-60
2023/03/12 06:45:13;;;;;;;8.27;3.60;;;3.90;99.90;;;;;;5097722;28;20198;-60
2023/03/12 06:47:40;;;;;;;4.33;3.30;;;3.90;99.90;;;;;;5100785;28;20610;-61
2023/03/12 06:50:07;;;;;;;7.43;3.70;;;3.90;99.90;;;;;;5082531;28;20217;-60
2023/03/12 06:52:34;;;;;;;9.60;3.50;;;3.70;99.90;;;;;;5099591;28;20205;-60
2023/03/12 06:55:01;;;;;;;5.03;3.70;;;3.80;99.90;;;;;;5097194;27;21258;-60
2023/03/12 06:57:28;;;;;;;6.63;3.77;;;3.90;99.90;;;;;;5097828;28;20290;-60
2023/03/12 06:59:54;;;;;;;7.73;3.43;;;3.80;99.90;;;;;;5099177;28;20622;-60
2023/03/12 07:02:21;;;;;;;7.13;3.77;;;3.70;99.90;;;;;;5091137;28;20244;-60
2023/03/12 07:04:48;;;;;;;5.03;3.80;;;3.70;99.90;;;;;;5097465;28;20198;-60
2023/03/12 07:07:15;;;;;;;9.03;4.00;;;3.80;99.90;;;;;;5099885;28;20209;-60
2023/03/12 07:09:43;;;;;;;7.40;4.23;;;3.80;99.90;;;;;;5097202;28;20218;-60
2023/03/12 07:12:10;;;;;;;10.27;4.37;;;3.80;99.90;;;;;;5097273;28;20243;-61
2023/03/12 07:14:37;;;;;;;8.40;5.37;;;3.80;99.90;;;;;;5097071;28;20260;-61
2023/03/12 07:17:04;;;;;;;7.77;4.50;;;3.90;99.90;;;;;;5097328;28;20271;-61
2023/03/12 07:19:31;;;;;;;6.27;4.20;;;3.90;99.90;;;;;;5100248;28;20224;-61
2023/03/12 07:21:58;;;;;;;5.60;4.20;;;4.00;99.90;;;;;;5098798;28;20565;-61
2023/03/12 07:24:25;;;;;;;7.77;4.43;;;4.10;99.90;;;;;;5077971;28;20291;-61
2023/03/12 07:26:51;;;;;;;6.70;4.93;;;4.10;99.90;;;;;;5075744;28;20207;-61
2023/03/12 07:29:18;;;;;;;5.87;4.80;;;4.00;99.90;;;;;;5099107;28;20202;-61
2023/03/12 07:31:45;;;;;;;6.93;4.30;;;3.90;99.90;;;;;;5078817;28;20280;-65
2023/03/12 07:34:12;;;;;;;6.87;4.50;;;4.00;99.90;;;;;;5098856;27;20238;-61
2023/03/12 07:36:39;;;;;;;6.40;5.07;;;4.00;99.90;;;;;;5098876;28;20264;-61
2023/03/12 07:39:07;;;;;;;8.10;5.13;;;4.00;99.90;;;;;;5080285;28;20593;-61
2023/03/12 07:41:36;;;;;;;12.23;4.83;;;3.90;99.90;;;;;;5096743;28;20197;-61
2023/03/12 07:44:05;;;;;;;8.20;5.40;;;3.90;99.90;;;;;;5095822;28;20294;-61
2023/03/12 07:46:32;;;;;;;8.43;5.90;;;4.00;99.90;;;;;;5097751;28;20305;-61
2023/03/12 07:48:59;;;;;;;7.47;4.73;;;3.90;99.90;;;;;;5080785;28;20209;-61
2023/03/12 07:51:26;;;;;;;7.23;4.83;;;3.90;99.90;;;;;;5098525;28;20237;-61
2023/03/12 07:53:53;;;;;;;8.13;4.93;;;4.00;99.90;;;;;;5082035;28;20595;-61
2023/03/12 07:56:20;;;;;;;5.50;3.93;;;4.00;99.90;;;;;;5077098;28;20222;-61
2023/03/12 07:58:47;;;;;;;8.10;5.27;;;4.00;99.90;;;;;;5097436;28;20218;-61
2023/03/12 08:01:14;;;;;;;8.33;5.17;;;4.00;99.90;;;;;;5099291;28;20641;-63
2023/03/12 08:03:41;;;;;;;6.40;4.70;;;4.20;99.90;;;;;;5098726;28;20530;-61
2023/03/12 08:06:08;;;;;;;9.17;5.30;;;4.10;99.90;;;;;;5097380;28;20205;-61
2023/03/12 08:08:39;;;;;;;11.90;4.90;;;4.20;99.90;;;;;;5099198;28;20691;-61
2023/03/12 08:11:08;;;;;;;7.87;4.53;;;4.20;99.90;;;;;;5097093;28;20288;-61
2023/03/12 08:13:35;;;;;;;7.40;5.50;;;4.30;99.90;;;;;;5094814;28;20580;-61
2023/03/12 08:16:02;;;;;;;9.67;5.53;;;4.30;99.90;;;;;;5096824;28;20654;-61
2023/03/12 08:18:29;;;;;;;8.13;5.83;;;4.40;99.90;;;;;;5099238;28;20578;-61
2023/03/12 08:20:55;;;;;;;8.57;5.37;;;4.40;99.90;;;;;;5097741;28;20263;-61
2023/03/12 08:23:22;;;;;;;7.60;4.70;;;4.50;99.90;;;;;;5097853;28;20208;-61
2023/03/12 08:25:50;;;;;;;11.43;5.73;;;4.60;99.90;;;;;;5095412;28;20198;-61
2023/03/12 08:28:18;;;;;;;9.23;5.30;;;4.60;99.90;;;;;;5096338;28;20280;-62
2023/03/12 08:30:50;;;;;;;9.57;5.50;;;4.60;99.90;;;;;;5097256;28;20797;-61
2023/03/12 08:33:17;;;;;;;8.30;5.37;;;4.60;99.90;;;;;;5098459;28;20756;-61
2023/03/12 08:35:45;;;;;;;8.40;5.60;;;4.70;99.90;;;;;;5095651;28;20344;-61
2023/03/12 08:38:12;;;;;;;6.33;5.33;;;4.80;99.90;;;;;;5099209;28;20569;-61
2023/03/12 08:40:39;;;;;;;7.17;5.13;;;4.80;99.90;;;;;;5097725;28;20202;-62
2023/03/12 08:43:09;;;;;;;8.00;5.40;;;4.80;99.90;;;;;;5098656;28;20206;-61
2023/03/12 08:45:36;;;;;;;7.30;5.70;;;4.90;99.90;;;;;;5096507;28;20244;-61
2023/03/12 08:48:04;;;;;;;11.20;6.50;;;4.90;99.90;;;;;;5098081;28;20576;-61
2023/03/12 08:50:32;;;;;;;8.50;5.83;;;4.90;99.90;;;;;;5084387;28;20195;-61
2023/03/12 08:52:58;;;;;;;7.83;6.03;;;5.00;99.90;;;;;;5101446;28;20297;-63
2023/03/12 08:55:29;;;;;;;8.80;5.63;;;5.00;99.90;;;;;;5099954;28;20202;-61
2023/03/12 08:57:56;;;;;;;10.00;6.60;;;5.10;99.90;;;;;;5100952;28;20206;-61
2023/03/12 09:00:23;;;;;;;12.53;7.43;;;5.20;99.90;;;;;;5098871;28;20194;-61
2023/03/12 09:02:52;;;;;;;13.57;7.77;;;5.30;99.90;;;;;;5100044;28;20198;-61
2023/03/12 09:05:19;;;;;;;12.33;8.43;;;5.40;99.90;;;;;;5097922;28;20194;-61
2023/03/12 09:07:48;;;;;;;10.73;8.63;;;5.50;99.90;;;;;;5098997;28;20591;-61
2023/03/12 09:10:16;;;;;;;14.10;9.93;;;5.60;99.90;;;;;;5099675;28;20206;-61
2023/03/12 09:12:43;;;;;;;14.97;9.47;;;5.70;99.90;;;;;;5079976;28;20198;-61
2023/03/12 09:15:10;;;;;;;13.87;9.73;;;5.80;99.90;;;;;;4730736;28;10000369;-61
2023/03/12 09:17:37;;;;;;;13.50;9.33;;;5.90;99.90;;;;;;5091236;28;20280;-61
2023/03/12 09:20:07;;;;;;;14.63;10.10;;;6.00;99.90;;;;;;5097572;28;20198;-61
2023/03/12 09:22:37;;;;;;;15.57;9.97;;;6.10;99.90;;;;;;5090038;28;20305;-61
2023/03/12 09:25:07;;;;;;;15.37;10.80;;;6.20;99.90;;;;;;5097063;27;20592;-61
2023/03/12 09:27:42;;;;;;;22.70;11.30;;;6.20;99.90;;;;;;5082529;28;20694;-62
2023/03/12 09:30:14;;;;;;;20.00;12.07;;;6.30;99.90;;;;;;5098147;28;20278;-61
2023/03/12 09:32:43;;;;;;;23.03;12.03;;;6.40;99.90;;;;;;5099601;28;20313;-61
2023/03/12 09:35:12;;;;;;;19.70;12.00;;;6.50;99.90;;;;;;5097855;28;20238;-61
2023/03/12 09:37:39;;;;;;;18.43;12.63;;;6.60;99.90;;;;;;5101381;28;20279;-62
2023/03/12 09:40:07;;;;;;;19.67;13.23;;;6.60;99.90;;;;;;5098743;28;20255;-62
2023/03/12 09:42:45;;;;;;;25.13;13.23;;;6.70;99.90;;;;;;5080101;28;20207;-61
2023/03/12 09:45:29;;;;;;;18.87;12.00;;;6.80;99.90;;;;;;5094785;28;21651;-61
2023/03/12 09:47:59;;;;;;;20.40;13.70;;;6.90;99.90;;;;;;5098824;28;20206;-61
2023/03/12 09:50:29;;;;;;;22.43;12.90;;;7.00;99.90;;;;;;5101450;28;20589;-61
2023/03/12 09:52:57;;;;;;;20.97;12.27;;;7.00;99.90;;;;;;5098481;28;20198;-62
2023/03/12 09:55:26;;;;;;;22.10;13.07;;;7.10;99.90;;;;;;5096299;28;20231;-61
2023/03/12 09:57:54;;;;;;;20.60;12.77;;;7.20;99.90;;;;;;5098904;28;20217;-61
2023/03/12 10:00:25;;;;;;;20.23;12.93;;;7.30;99.90;;;;;;5097703;28;20192;-61
2023/03/12 10:03:11;;;;;;;21.70;12.80;;;7.40;99.90;;;;;;5098953;28;20239;-62
2023/03/12 10:06:08;;;;;;;20.73;13.83;;;7.50;99.90;;;;;;5077183;28;20659;-61
2023/03/12 10:08:53;;;;;;;21.30;12.60;;;7.60;99.90;;;;;;5097957;28;20212;-61
2023/03/12 10:11:49;;;;;;;22.80;13.27;;;7.70;99.90;;;;;;5097568;28;20220;-61
2023/03/12 10:14:41;;;;;;;25.67;13.27;;;7.80;99.90;;;;;;5090862;28;20630;-57
2023/03/12 10:17:26;;;;;;;22.73;12.83;;;7.90;99.90;;;;;;5099635;28;20516;-57
2023/03/12 10:20:20;;;;;;;22.23;12.33;;;8.00;99.90;;;;;;5100141;28;20290;-59
2023/03/12 10:23:10;;;;;;;25.13;12.67;;;8.10;99.90;;;;;;5098251;28;20207;-58
2023/03/12 10:25:40;;;;;;;23.93;12.93;;;8.20;99.90;;;;;;5095688;28;20237;-58
2023/03/12 10:28:30;;;;;;;19.13;11.47;;;8.30;99.90;;;;;;5083071;28;20217;-58
2023/03/12 10:31:02;;;;;;;26.43;12.13;;;8.40;99.90;;;;;;5068235;28;20202;-58
2023/03/12 10:33:52;;;;;;;19.60;11.20;;;8.50;99.90;;;;;;5099055;28;20317;-58
2023/03/12 10:36:28;;;;;;;19.57;11.60;;;8.60;99.90;;;;;;5079624;28;20667;-59
2023/03/12 10:38:55;;;;;;;17.50;9.23;;;8.60;99.90;;;;;;5099727;28;20250;-58
2023/03/12 10:41:25;;;;;;;21.87;10.87;;;8.70;99.90;;;;;;5098825;28;20617;-58
2023/03/12 10:43:53;;;;;;;22.43;10.43;;;8.80;99.90;;;;;;5098440;28;20289;-58
2023/03/12 10:46:58;;;;;;;26.40;9.63;;;8.80;99.90;;;;;;5093257;28;20202;-58
2023/03/12 10:49:28;;;;;;;24.97;9.30;;;8.90;99.90;;;;;;5097137;28;20721;-58
2023/03/12 10:52:19;;;;;;;21.37;9.93;;;8.90;99.90;;;;;;5095731;28;20252;-58
2023/03/12 10:54:50;;;;;;;25.00;9.37;;;8.90;99.90;;;;;;5093714;28;20248;-64
2023/03/12 10:57:18;;;;;;;19.27;7.47;;;9.00;99.90;;;;;;5099553;28;20203;-58
2023/03/12 10:59:46;;;;;;;20.23;7.80;;;9.10;99.90;;;;;;5096815;28;20291;-58
2023/03/12 11:02:30;;;;;;;17.30;6.70;;;9.10;99.90;;;;;;5099410;28;20516;-58
2023/03/12 11:04:59;;;;;;;23.97;6.90;;;9.20;99.90;;;;;;5082941;28;20230;-58
2023/03/12 11:07:29;;;;;;;15.80;7.63;;;9.20;99.90;;;;;;5074673;28;20205;-58
2023/03/12 11:10:23;;;;;;;16.57;7.13;;;9.30;99.90;;;;;;5077909;28;20681;-58
2023/03/12 11:12:52;;;;;;;17.07;7.00;;;9.30;99.90;;;;;;5089651;28;20287;-58
2023/03/12 11:15:20;;;;;;;20.60;7.87;;;9.30;99.90;;;;;;5092927;28;20284;-58
2023/03/12 11:17:47;;;;;;;13.73;7.60;;;9.30;99.90;;;;;;5097683;28;20272;-59
2023/03/12 11:20:20;;;;;;;22.80;8.30;;;9.40;99.90;;;;;;5096134;28;20204;-58
2023/03/12 11:22:46;;;;;;;24.83;7.80;;;9.50;99.90;;;;;;5093201;28;20312;-59
2023/03/12 11:25:24;;;;;;;24.90;7.67;;;9.50;99.90;;;;;;5095720;28;20262;-65
2023/03/12 11:27:58;;;;;;;24.57;8.43;;;9.50;99.90;;;;;;5076511;28;20301;-60
2023/03/12 11:30:35;;;;;;;25.70;8.37;;;9.60;99.90;;;;;;5096461;28;20213;-58
2023/03/12 11:33:03;;;;;;;23.20;8.60;;;9.60;99.90;;;;;;5092982;28;20757;-59
2023/03/12 11:36:08;;;;;;;22.40;8.50;;;9.70;99.90;;;;;;5095547;28;20208;-59
2023/03/12 11:38:40;;;;;;;22.17;8.03;;;9.70;99.90;;;;;;5094046;28;20211;-58
2023/03/12 11:41:44;;;;;;;23.43;7.53;;;9.80;99.90;;;;;;5096089;28;20194;-59
2023/03/12 11:44:25;;;;;;;27.03;7.77;;;9.70;99.90;;;;;;5093857;28;20288;-59
2023/03/12 11:47:18;;;;;;;24.57;8.53;;;9.70;99.90;;;;;;5091926;28;20206;-58
2023/03/12 11:49:50;;;;;;;18.07;7.30;;;9.80;99.90;;;;;;5094455;28;20257;-58
2023/03/12 11:52:34;;;;;;;26.43;7.87;;;9.80;99.90;;;;;;5092022;28;20232;-58
2023/03/12 11:55:39;;;;;;;23.73;7.03;;;9.90;99.90;;;;;;5093067;28;20252;-58
2023/03/12 11:58:12;;;;;;;23.87;5.83;;;10.00;99.90;;;;;;5068996;28;20226;-58
2023/03/12 12:01:07;;;;;;;23.97;6.80;;;10.00;99.90;;;;;;5092733;28;20221;-59
2023/03/12 12:03:49;;;;;;;15.90;6.27;;;10.00;99.90;;;;;;5097297;28;20198;-58
2023/03/12 12:06:24;;;;;;;21.23;5.93;;;10.10;99.90;;;;;;5093722;28;20201;-58
2023/03/12 12:09:13;;;;;;;17.80;5.07;;;10.30;99.90;;;;;;5092597;28;20197;-58
2023/03/12 12:11:50;;;;;;;19.37;5.67;;;10.40;99.90;;;;;;5098721;28;20275;-58
2023/03/12 12:14:40;;;;;;;18.40;5.93;;;10.40;99.90;;;;;;5093763;28;20232;-58
2023/03/12 12:17:31;;;;;;;21.73;6.13;;;10.60;99.90;;;;;;5055290;28;20972;-59
2023/03/12 12:20:20;;;;;;;11.93;4.17;;;11.00;99.90;;;;;;5091222;28;20282;-59
2023/03/12 12:23:18;;;;;;;16.40;4.37;;;11.30;99.90;;;;;;5094693;28;20221;-58
2023/03/12 12:26:10;;;;;;;22.47;4.77;;;11.20;99.90;;;;;;5087178;28;20226;-58
2023/03/12 12:29:10;;;;;;;20.60;4.67;;;11.10;99.90;;;;;;5091612;28;20205;-58
2023/03/12 12:31:54;;;;;;;17.93;4.50;;;11.10;99.90;;;;;;5089646;28;20238;-58
2023/03/12 12:34:56;;;;;;;16.97;4.67;;;10.90;99.90;;;;;;5088714;28;20586;-58
2023/03/12 12:37:52;;;;;;;20.87;4.97;;;10.90;99.90;;;;;;5057259;28;21248;-58
2023/03/12 12:40:40;;;;;;;14.53;4.20;;;11.00;99.90;;;;;;5091934;28;20194;-58
2023/03/12 12:43:09;;;;;;;18.50;4.40;;;11.00;99.90;;;;;;5089428;28;20208;-62
2023/03/12 12:45:40;;;;;;;12.60;4.20;;;10.90;99.90;;;;;;5091845;28;20292;-58
2023/03/12 12:48:16;;;;;;;11.80;4.70;;;11.10;99.90;;;;;;5098241;28;21159;-58
2023/03/12 12:50:46;;;;;;;21.53;4.83;;;11.10;99.90;;;;;;5097865;28;20219;-58
2023/03/12 12:53:36;;;;;;;23.20;5.10;;;11.10;99.90;;;;;;5097597;28;20278;-58
2023/03/12 12:56:22;;;;;;;11.57;4.40;;;11.10;99.90;;;;;;5096471;28;20199;-58
2023/03/12 12:59:02;;;;;;;14.20;5.63;;;11.20;99.90;;;;;;5089449;28;20207;-58
2023/03/12 13:01:31;;;;;;;17.30;5.00;;;11.20;99.90;;;;;;5093970;28;20196;-58
2023/03/12 13:04:24;;;;;;;16.50;5.83;;;11.30;99.90;;;;;;5095207;28;20226;-58
2023/03/12 13:06:55;;;;;;;14.07;4.60;;;11.30;99.90;;;;;;5095412;28;20221;-58
2023/03/12 13:09:44;;;;;;;13.67;4.80;;;11.30;99.90;;;;;;5097150;28;20248;-58
2023/03/12 13:12:17;;;;;;;17.17;4.43;;;11.40;99.90;;;;;;5096675;28;20245;-57